Tahitian Princess — ZCDD8 — position and weather

sailwx.info

Track history (hours):
 
Tides and Currents Weather Stations Pressure Air Temp Water Temp Dewpoint Dewpoint Depression Visibility Wind Speed Wind Dir Waves Ship Positions

Tahitian Princess

Operator: P & O Irish Sea Ltd

Last reported at 2018-May-24 17:30 UTC. Time now 2018-May-24 17:49 UTC.
Position N 53°27' W 003°01'.

Length 167 m; draft 5.8 m.

Type: Passenger vessel. MMSI: 310362000.

Date/timePositionNaut miles runAvg speedWind from/ knotsBaromVisibWave heightAir tempDewpointWater temp
2018-May-24 17:30N 53°27' W 003°01'0 0.0
2018-May-24 17:00N 53°27' W 003°01'0 0.0
2018-May-24 16:31N 53°27' W 003°01'0 0.1
2018-May-24 16:00N 53°27' W 003°01'0 0.8
2018-May-24 15:30N 53°27' W 003°01'1 1.4
2018-May-24 15:00N 53°27' W 003°02'714.7
2018-May-24 14:30N 53°31' W 003°13'918.7
2018-May-24 14:00N 53°31' W 003°28'1020.1
2018-May-24 13:30N 53°32' W 003°45'8418.7
2018-May-24 09:00N 53°20' W 006°05'5 9.5
2018-May-24 08:30N 53°21' W 006°13'0 0.1
2018-May-24 08:00N 53°21' W 006°13'0 0.0
2018-May-24 07:30N 53°21' W 006°13'0 0.0
2018-May-24 06:59N 53°21' W 006°13'0 0.0
2018-May-24 06:30N 53°21' W 006°13'0 0.0
2018-May-24 06:00N 53°21' W 006°13'0 0.0
2018-May-24 05:29N 53°21' W 006°13'0 0.0
2018-May-24 04:59N 53°21' W 006°13'0 0.0
2018-May-24 04:29N 53°21' W 006°13'0 0.2
2018-May-24 04:00N 53°21' W 006°13'5 8.1
2018-May-24 03:25N 53°20' W 006°05'816.9
2018-May-24 02:58N 53°23' W 005°53'816.7
2018-May-24 02:29N 53°25' W 005°40'915.7
2018-May-24 01:56N 53°28' W 005°26'4215.7
2018-May-23 23:15N 53°34' W 004°16'916.8
2018-May-23 22:44N 53°34' W 004°01'417.5
2018-May-23 22:30N 53°34' W 003°55'918.6
2018-May-23 22:00N 53°33' W 003°39'1019.9
2018-May-23 21:30N 53°33' W 003°23'1018.8
2018-May-23 21:00N 53°31' W 003°07'510.5
2018-May-23 20:30N 53°27' W 003°01'0 0.9
2018-May-23 20:00N 53°27' W 003°01'0 0.0
2018-May-23 19:30N 53°27' W 003°01'0 0.0
2018-May-23 19:00N 53°27' W 003°01'0 0.0
2018-May-23 18:30N 53°27' W 003°01'0 0.0
2018-May-23 17:49N 53°27' W 003°01'0 0.0
2018-May-23 17:30N 53°27' W 003°01'0 0.0
2018-May-23 16:53N 53°27' W 003°01'0 0.0
2018-May-23 16:30N 53°27' W 003°01'0 0.0
2018-May-23 16:00N 53°27' W 003°01'0 0.5
2018-May-23 15:30N 53°27' W 003°01'0 0.4
2018-May-23 15:00N 53°27' W 003°01'4 8.7
2018-May-23 14:30N 53°30' W 003°06'917.3
2018-May-23 14:00N 53°31' W 003°20'1019.1
2018-May-23 13:30N 53°31' W 003°36'1018.9
2018-May-23 13:00N 53°32' W 003°53'1020.3
2018-May-23 12:30N 53°34' W 004°09'4919.1
2018-May-23 09:56N 53°27' W 005°31'1120.0
2018-May-23 09:22N 53°23' W 005°49'918.4
2018-May-23 08:53N 53°20' W 006°03'612.0
2018-May-23 08:25N 53°21' W 006°12'1 0.7
2018-May-23 07:39N 53°21' W 006°13'0 0.0
2018-May-23 07:27N 53°21' W 006°13'0 0.0
2018-May-23 06:48N 53°21' W 006°13'0 0.0
2018-May-23 06:11N 53°21' W 006°13'0 0.0
2018-May-23 05:56N 53°21' W 006°13'0 0.0
2018-May-23 05:09N 53°21' W 006°13'0 0.0
2018-May-23 04:57N 53°21' W 006°13'0 0.0
2018-May-23 04:28N 53°21' W 006°13'0 0.2
2018-May-23 04:01N 53°21' W 006°13'6 9.2
2018-May-23 03:24N 53°21' W 006°03'716.8
2018-May-23 03:00N 53°23' W 005°53'816.6
2018-May-23 02:29N 53°26' W 005°40'4018.0
2018-May-23 00:16N 53°34' W 004°34'519.9
2018-May-22 23:59N 53°35' W 004°24'1020.2
2018-May-22 23:30N 53°34' W 004°08'1020.7
2018-May-22 23:00N 53°34' W 003°51'1020.8
2018-May-22 22:30N 53°33' W 003°33'1019.5
2018-May-22 22:00N 53°32' W 003°17'816.2
2018-May-22 21:30N 53°29' W 003°05'3 5.2
2018-May-22 21:00N 53°27' W 003°01'0 0.6
2018-May-22 20:30N 53°27' W 003°01'0 0.3
2018-May-22 19:55N 53°27' W 003°01'0 0.0
2018-May-22 19:29N 53°27' W 003°01'0 0.0
2018-May-22 18:59N 53°27' W 003°01'0 0.0
2018-May-22 18:30N 53°27' W 003°01'0 0.0
2018-May-22 17:58N 53°27' W 003°01'0 0.0
2018-May-22 17:30N 53°27' W 003°01'0 0.0
2018-May-22 16:54N 53°27' W 003°01'0 0.0
2018-May-22 16:30N 53°27' W 003°01'0 0.0
2018-May-22 16:00N 53°27' W 003°01'0 0.8
2018-May-22 15:30N 53°27' W 003°01'0 0.3
2018-May-22 15:00N 53°27' W 003°01'5 9.2
2018-May-22 14:30N 53°30' W 003°06'918.2
2018-May-22 14:00N 53°31' W 003°21'1121.5
2018-May-22 13:30N 53°31' W 003°39'1121.4
2018-May-22 13:00N 53°33' W 003°57'6920.0
2018-May-22 09:34N 53°23' W 005°51'719.6
2018-May-22 09:12N 53°20' W 006°03'413.2
2018-May-22 08:55N 53°21' W 006°09'2 5.6
2018-May-22 08:29N 53°21' W 006°13'0 0.0
2018-May-22 07:44N 53°21' W 006°13'0 0.0
2018-May-22 06:40N 53°21' W 006°13'0 0.0
2018-May-22 06:29N 53°21' W 006°13'0 0.0
2018-May-22 06:00N 53°21' W 006°13'0 0.0
2018-May-22 04:33N 53°21' W 006°13'0 0.0
2018-May-22 04:22N 53°21' W 006°13'1 1.8
2018-May-22 03:56N 53°21' W 006°12'511.4
2018-May-22 03:30N 53°21' W 006°03'918.9
2018-May-22 03:00N 53°24' W 005°49'1020.1
2018-May-22 02:30N 53°27' W 005°33'3318.7
2018-May-22 00:46N 53°34' W 004°39'1718.1
2018-May-21 23:48N 53°34' W 004°10'618.8
2018-May-21 23:29N 53°34' W 004°00'1119.6
2018-May-21 22:55N 53°33' W 003°42'820.0
2018-May-21 22:30N 53°33' W 003°28'918.2
2018-May-21 22:00N 53°31' W 003°12'815.9
2018-May-21 21:30N 53°27' W 003°01'0 0.6
2018-May-21 21:00N 53°27' W 003°01'0 0.9
2018-May-21 20:30N 53°27' W 003°01'0 0.0
2018-May-21 19:59N 53°27' W 003°01'0 0.0
2018-May-21 19:29N 53°27' W 003°01'0 0.0
2018-May-21 18:58N 53°27' W 003°01'0 0.0
2018-May-21 18:30N 53°27' W 003°01'0 0.0
2018-May-21 17:57N 53°27' W 003°01'0 0.0
2018-May-21 17:30N 53°27' W 003°01'0 0.0
2018-May-21 17:00N 53°27' W 003°01'0 0.0
2018-May-21 16:30N 53°27' W 003°01'0 0.0
2018-May-21 16:00N 53°27' W 003°01'0 0.0
2018-May-21 15:30N 53°27' W 003°01'0 0.0
2018-May-21 15:00N 53°27' W 003°01'0 0.0
2018-May-21 14:30N 53°27' W 003°01'0 0.0
2018-May-21 14:00N 53°27' W 003°01'0 0.0
2018-May-21 13:29N 53°27' W 003°01'0 0.0
2018-May-21 12:55N 53°27' W 003°01'0 0.0
2018-May-21 12:30N 53°27' W 003°01'0 0.0
2018-May-21 12:00N 53°27' W 003°01'0 0.0
2018-May-21 11:30N 53°27' W 003°01'0 0.0
2018-May-21 10:58N 53°27' W 003°01'0 0.0
2018-May-21 10:30N 53°27' W 003°01'0 0.0
2018-May-21 10:00N 53°27' W 003°01'0 0.0
2018-May-21 09:30N 53°27' W 003°01'0 0.0
2018-May-21 09:00N 53°27' W 003°01'0 0.0
2018-May-21 08:21N 53°27' W 003°01'0 0.0
2018-May-21 08:00N 53°27' W 003°01'0 0.0
2018-May-21 07:30N 53°27' W 003°01'0 0.0
2018-May-21 07:00N 53°27' W 003°01'0 0.0
2018-May-21 06:30N 53°27' W 003°01'0 0.0
2018-May-21 06:00N 53°27' W 003°01'0 0.0
2018-May-21 05:24N 53°27' W 003°01'0 0.0
2018-May-21 04:58N 53°27' W 003°01'0 0.4
2018-May-21 04:30N 53°27' W 003°01'0 0.7
2018-May-21 04:00N 53°27' W 003°01'510.0
2018-May-21 03:30N 53°31' W 003°07'817.0
2018-May-21 03:00N 53°31' W 003°21'816.4
2018-May-21 02:30N 53°31' W 003°35'714.9
2018-May-21 02:00N 53°31' W 003°47'814.9
2018-May-21 01:28N 53°33' W 004°00'715.3
2018-May-21 01:00N 53°34' W 004°12'815.8
2018-May-21 00:30N 53°35' W 004°25'1316.9
2018-May-20 23:42N 53°34' W 004°48'518.5
2018-May-20 23:25N 53°33' W 004°57'1316.1
2018-May-20 22:36N 53°30' W 005°18'214.5
2018-May-20 22:29N 53°29' W 005°21'714.4
2018-May-20 21:59N 53°27' W 005°32'914.5
2018-May-20 21:22N 53°24' W 005°46'714.9
2018-May-20 20:56N 53°22' W 005°57'615.4
2018-May-20 20:30N 53°21' W 006°08'3 6.6
2018-May-20 20:00N 53°21' W 006°13'0 0.0
2018-May-20 19:07N 53°21' W 006°13'0 0.0
2018-May-20 18:39N 53°21' W 006°13'0 0.0
2018-May-20 18:20N 53°21' W 006°13'0 0.0
2018-May-20 18:00N 53°21' W 006°13'0 0.0
2018-May-20 14:13N 53°21' W 006°13'0 0.0
2018-May-20 13:50N 53°21' W 006°13'0 0.0
2018-May-20 12:17N 53°21' W 006°13'0 0.0
2018-May-20 11:52N 53°21' W 006°13'0 0.0
2018-May-20 11:24N 53°21' W 006°13'0 0.0
2018-May-20 11:00N 53°21' W 006°13'0 0.0
2018-May-20 09:44N 53°21' W 006°13'0 0.0
2018-May-20 08:19N 53°21' W 006°13'0 0.0
2018-May-20 07:49N 53°21' W 006°13'0 0.0
2018-May-20 07:26N 53°21' W 006°13'0 0.0
2018-May-20 06:58N 53°21' W 006°13'0 0.0
2018-May-20 06:30N 53°21' W 006°13'0 0.0
2018-May-20 05:59N 53°21' W 006°13'0 0.0
2018-May-20 05:30N 53°21' W 006°13'0 0.0
2018-May-20 05:00N 53°21' W 006°13'0 0.0
2018-May-20 04:29N 53°21' W 006°13'0 0.0
2018-May-20 04:00N 53°21' W 006°13'0 0.0
2018-May-20 03:26N 53°21' W 006°13'0 0.0
2018-May-20 02:41N 53°21' W 006°13'0 0.0
2018-May-20 02:24N 53°21' W 006°13'0 0.0
2018-May-20 01:54N 53°21' W 006°13'0 0.0
2018-May-20 01:26N 53°21' W 006°13'0 0.0
2018-May-20 00:45N 53°21' W 006°13'0 0.0
2018-May-19 23:43N 53°21' W 006°13'0 0.0
2018-May-19 23:29N 53°21' W 006°13'0 0.0
2018-May-19 22:59N 53°21' W 006°13'0 0.0
2018-May-19 22:28N 53°21' W 006°13'0 0.0
2018-May-19 22:00N 53°21' W 006°13'0 0.0
2018-May-19 21:30N 53°21' W 006°13'0 0.0
2018-May-19 20:27N 53°21' W 006°13'0 0.0
2018-May-19 20:00N 53°21' W 006°13'0 0.0
2018-May-19 19:18N 53°21' W 006°13'0 0.0
2018-May-19 18:58N 53°21' W 006°13'0 0.0
2018-May-19 18:29N 53°21' W 006°13'0 0.0
2018-May-19 18:00N 53°21' W 006°13'0 0.0
2018-May-19 17:30N 53°21' W 006°13'0 0.0
2018-May-19 16:57N 53°21' W 006°13'1 3.1
2018-May-19 16:29N 53°21' W 006°11'5 9.9
2018-May-19 16:00N 53°21' W 006°03'917.7
2018-May-19 15:30N 53°24' W 005°49'1019.1
2018-May-19 14:59N 53°27' W 005°33'2020.0
2018-May-19 13:59N 53°32' W 005°01'1019.8
2018-May-19 13:30N 53°34' W 004°45'2318.7
2018-May-19 12:17N 53°35' W 004°07'518.5
2018-May-19 12:00N 53°34' W 003°58'918.5
2018-May-19 11:30N 53°34' W 003°42'918.3
2018-May-19 11:00N 53°33' W 003°27'917.3
2018-May-19 10:30N 53°31' W 003°13'713.3
2018-May-19 10:00N 53°28' W 003°03'2 2.9
2018-May-19 09:30N 53°27' W 003°01'0 0.4
2018-May-19 09:00N 53°27' W 003°01'0 0.5
2018-May-19 08:30N 53°27' W 003°01'0 0.0
2018-May-19 08:00N 53°27' W 003°01'0 0.0
2018-May-19 07:30N 53°27' W 003°01'0 0.0
2018-May-19 07:00N 53°27' W 003°01'0 0.0
2018-May-19 06:30N 53°27' W 003°01'0 0.0
2018-May-19 05:52N 53°27' W 003°01'0 0.0
2018-May-19 05:30N 53°27' W 003°01'0 0.0
2018-May-19 04:57N 53°27' W 003°01'0 0.0
2018-May-19 04:30N 53°27' W 003°01'0 0.8
2018-May-19 04:00N 53°27' W 003°01'0 0.2
2018-May-19 03:30N 53°27' W 003°01'4 8.0
2018-May-19 03:00N 53°30' W 003°06'815.5
2018-May-19 02:30N 53°31' W 003°18'917.8
2018-May-19 02:00N 53°31' W 003°34'918.2
2018-May-19 01:30N 53°32' W 003°49'1018.8
2018-May-19 00:59N 53°33' W 004°05'919.4
2018-May-19 00:30N 53°34' W 004°20'1019.8
2018-May-19 00:00N 53°36' W 004°37'1020.6
2018-May-18 23:30N 53°35' W 004°54'1020.4
2018-May-18 23:00N 53°32' W 005°10'1019.5
2018-May-18 22:30N 53°28' W 005°26'918.7
2018-May-18 22:00N 53°25' W 005°41'918.9
2018-May-18 21:30N 53°22' W 005°56'916.4
2018-May-18 20:59N 53°21' W 006°10'2 4.2
2018-May-18 20:30N 53°21' W 006°13'0 0.0
2018-May-18 20:00N 53°21' W 006°13'0 0.0
2018-May-18 19:28N 53°21' W 006°13'0 0.0
2018-May-18 19:00N 53°21' W 006°13'0 0.0
2018-May-18 18:29N 53°21' W 006°13'0 0.0
2018-May-18 17:57N 53°21' W 006°13'0 0.0
2018-May-18 17:29N 53°21' W 006°13'0 0.0
2018-May-18 16:59N 53°21' W 006°13'0 0.0
2018-May-18 16:30N 53°21' W 006°13'2 3.8
2018-May-18 16:00N 53°21' W 006°10'815.8
2018-May-18 15:30N 53°22' W 005°57'918.8
2018-May-18 15:00N 53°25' W 005°42'918.6
2018-May-18 14:30N 53°27' W 005°27'2318.6
2018-May-18 13:15N 53°33' W 004°49'3019.2
2018-May-18 11:42N 53°35' W 003°59'518.6
2018-May-18 11:27N 53°35' W 003°51'818.3
2018-May-18 11:00N 53°33' W 003°38'918.4
2018-May-18 10:30N 53°33' W 003°22'816.6
2018-May-18 10:00N 53°32' W 003°09'713.2
2018-May-18 09:30N 53°27' W 003°01'0 0.5
2018-May-18 09:00N 53°27' W 003°01'0 0.8
2018-May-18 08:30N 53°27' W 003°01'0 0.0
2018-May-18 08:00N 53°27' W 003°01'0 0.0
2018-May-18 07:30N 53°27' W 003°01'0 0.0
2018-May-18 06:58N 53°27' W 003°01'0 0.0
2018-May-18 06:30N 53°27' W 003°01'0 0.0
2018-May-18 05:54N 53°27' W 003°01'0 0.0
2018-May-18 05:29N 53°27' W 003°01'0 0.0
2018-May-18 04:58N 53°27' W 003°01'0 0.0
2018-May-18 04:30N 53°27' W 003°01'0 0.8
2018-May-18 04:00N 53°27' W 003°01'0 0.2
2018-May-18 03:30N 53°27' W 003°01'4 8.0
2018-May-18 03:00N 53°30' W 003°06'714.8
2018-May-18 02:30N 53°31' W 003°18'816.4
2018-May-18 02:00N 53°31' W 003°32'814.9
2018-May-18 01:30N 53°31' W 003°44'816.3
2018-May-18 01:00N 53°33' W 003°57'5118.4
2018-May-17 22:15N 53°29' W 005°23'618.7
2018-May-17 21:57N 53°28' W 005°32'918.9
2018-May-17 21:29N 53°25' W 005°46'919.1
2018-May-17 21:00N 53°21' W 005°60'713.5
2018-May-17 20:29N 53°21' W 006°12'1 1.8
2018-May-17 20:00N 53°21' W 006°13'0 0.0
2018-May-17 19:30N 53°21' W 006°13'0 0.0
2018-May-17 19:00N 53°21' W 006°13'0 0.0
2018-May-17 18:30N 53°21' W 006°13'0 0.0
2018-May-17 18:00N 53°21' W 006°13'0 0.0
2018-May-17 17:25N 53°21' W 006°13'0 0.0
2018-May-17 17:00N 53°21' W 006°13'0 0.0
2018-May-17 16:30N 53°21' W 006°13'2 4.3
2018-May-17 16:00N 53°21' W 006°09'816.0
2018-May-17 15:30N 53°22' W 005°56'1020.3
2018-May-17 15:01N 53°25' W 005°40'1020.5
2018-May-17 14:30N 53°28' W 005°23'1121.3
2018-May-17 14:00N 53°31' W 005°06'3321.2
2018-May-17 12:27N 53°35' W 004°11'1020.3
2018-May-17 11:58N 53°34' W 003°55'919.6
2018-May-17 11:30N 53°34' W 003°40'1019.2
2018-May-17 11:00N 53°33' W 003°23'917.4
2018-May-17 10:30N 53°32' W 003°09'713.7
2018-May-17 10:00N 53°27' W 003°01'0 0.6
2018-May-17 09:30N 53°27' W 003°01'0 0.6
2018-May-17 08:58N 53°27' W 003°01'0 0.0
2018-May-17 08:26N 53°27' W 003°01'0 0.0
2018-May-17 08:00N 53°27' W 003°01'0 0.0
2018-May-17 07:30N 53°27' W 003°01'0 0.0
2018-May-17 06:59N 53°27' W 003°01'0 0.0
2018-May-17 06:29N 53°27' W 003°01'0 0.0
2018-May-17 05:53N 53°27' W 003°01'0 0.0
2018-May-17 05:30N 53°27' W 003°01'0 0.0
2018-May-17 04:58N 53°27' W 003°01'0 0.2
2018-May-17 04:30N 53°27' W 003°01'0 0.7
2018-May-17 04:00N 53°27' W 003°01'0 0.3
2018-May-17 03:30N 53°27' W 003°01'5 9.0
2018-May-17 03:00N 53°30' W 003°06'714.6
2018-May-17 02:30N 53°31' W 003°18'816.8
2018-May-17 02:00N 53°31' W 003°32'816.8
2018-May-17 01:30N 53°32' W 003°46'917.3
2018-May-17 01:01N 53°33' W 004°01'917.5
2018-May-17 00:30N 53°35' W 004°15'2618.4
2018-May-16 23:06N 53°34' W 004°59'919.5
2018-May-16 22:39N 53°31' W 005°13'419.3
2018-May-16 22:27N 53°30' W 005°19'918.8
2018-May-16 21:59N 53°27' W 005°33'1318.7
2018-May-16 21:18N 53°23' W 005°53'619.2
2018-May-16 20:58N 53°20' W 006°03'612.0
2018-May-16 20:30N 53°21' W 006°12'1 1.1
2018-May-16 19:59N 53°21' W 006°13'0 0.0
2018-May-16 19:29N 53°21' W 006°13'0 0.0
2018-May-16 19:00N 53°21' W 006°13'0 0.0
2018-May-16 18:29N 53°21' W 006°13'0 0.0
2018-May-16 17:53N 53°21' W 006°13'0 0.0
2018-May-16 17:08N 53°21' W 006°13'0 0.0
2018-May-16 16:58N 53°21' W 006°13'0 0.0
2018-May-16 16:29N 53°21' W 006°13'2 5.0
2018-May-16 16:00N 53°21' W 006°09'816.1
2018-May-16 15:30N 53°22' W 005°56'1018.7
2018-May-16 14:58N 53°25' W 005°40'918.5
2018-May-16 14:30N 53°27' W 005°26'4920.8
2018-May-16 12:08N 53°34' W 004°04'620.5
2018-May-16 11:49N 53°34' W 003°53'619.7
2018-May-16 11:31N 53°34' W 003°42'917.9
2018-May-16 11:00N 53°33' W 003°27'917.7
2018-May-16 10:30N 53°31' W 003°13'714.1
2018-May-16 10:00N 53°28' W 003°02'1 1.8
2018-May-16 09:28N 53°27' W 003°01'0 0.8
2018-May-16 08:57N 53°27' W 003°01'0 0.0
2018-May-16 08:30N 53°27' W 003°01'0 0.0
2018-May-16 08:00N 53°27' W 003°01'0 0.0
2018-May-16 07:29N 53°27' W 003°01'0 0.0
2018-May-16 07:01N 53°27' W 003°01'0 0.0
2018-May-16 06:29N 53°27' W 003°01'0 0.0
2018-May-16 06:01N 53°27' W 003°01'0 0.0
2018-May-16 05:27N 53°27' W 003°01'0 0.9
2018-May-16 05:00N 53°27' W 003°01'0 0.3
2018-May-16 04:30N 53°27' W 003°01'3 6.2
2018-May-16 04:00N 53°29' W 003°05'5 9.6
2018-May-16 03:30N 53°31' W 003°12'612.7
2018-May-16 03:00N 53°31' W 003°23'1 1.4
2018-May-16 02:29N 53°31' W 003°21'715.3
2018-May-16 02:00N 53°31' W 003°34'714.7
2018-May-16 01:30N 53°31' W 003°46'917.4
2018-May-16 01:00N 53°32' W 004°01'6918.5
2018-May-15 21:17N 53°22' W 005°55'715.6
2018-May-15 20:49N 53°20' W 006°07'310.5
2018-May-15 20:30N 53°21' W 006°12'1 1.0
2018-May-15 20:00N 53°21' W 006°13'0 0.0
2018-May-15 19:30N 53°21' W 006°13'0 0.0
2018-May-15 19:00N 53°21' W 006°13'0 0.0
2018-May-15 18:30N 53°21' W 006°13'0 0.0
2018-May-15 18:00N 53°21' W 006°13'0 0.0
2018-May-15 17:30N 53°21' W 006°13'0 0.0
2018-May-15 16:58N 53°21' W 006°13'0 0.0
2018-May-15 16:30N 53°21' W 006°13'2 3.9
2018-May-15 15:59N 53°21' W 006°10'714.7
2018-May-15 15:31N 53°22' W 005°58'917.4
2018-May-15 14:59N 53°25' W 005°44'1016.8
2018-May-15 14:23N 53°27' W 005°27'5117.9
2018-May-15 11:33N 53°34' W 004°03'219.2
2018-May-15 11:27N 53°34' W 003°60'1218.8
2018-May-15 10:50N 53°33' W 003°40'617.9
2018-May-15 10:30N 53°33' W 003°30'918.0
2018-May-15 10:00N 53°31' W 003°15'815.5
2018-May-15 09:30N 53°28' W 003°03'2 3.7
2018-May-15 09:00N 53°27' W 003°01'0 0.9
2018-May-15 08:30N 53°27' W 003°01'0 0.0
2018-May-15 07:52N 53°27' W 003°01'0 0.0
2018-May-15 07:28N 53°27' W 003°01'0 0.0
2018-May-15 06:55N 53°27' W 003°01'0 0.0
2018-May-15 06:28N 53°27' W 003°01'0 0.0
2018-May-15 05:58N 53°27' W 003°01'0 0.0
2018-May-15 05:25N 53°27' W 003°01'0 0.0
2018-May-15 04:52N 53°27' W 003°01'0 0.1
2018-May-15 04:28N 53°27' W 003°01'0 0.8
2018-May-15 03:59N 53°27' W 003°01'0 0.3
2018-May-15 03:30N 53°27' W 003°01'612.5
2018-May-15 03:00N 53°32' W 003°08'715.2
2018-May-15 02:30N 53°31' W 003°21'815.7
2018-May-15 02:00N 53°31' W 003°34'714.0
2018-May-15 01:30N 53°32' W 003°46'714.9
2018-May-15 01:00N 53°33' W 003°58'7516.2
2018-May-14 20:24N 53°21' W 006°02'613.3
2018-May-14 19:59N 53°21' W 006°11'1 2.3
2018-May-14 19:29N 53°21' W 006°13'0 0.0
2018-May-14 19:00N 53°21' W 006°13'0 0.0
2018-May-14 18:30N 53°21' W 006°13'0 0.0
2018-May-14 18:00N 53°21' W 006°13'  
Track history (hours):
 
Tides and Currents Weather Stations Pressure Air Temp Water Temp Dewpoint Dewpoint Depression Visibility Wind Speed Wind Dir Waves Ship Positions

Tahitian Princess

Operator: P & O Irish Sea Ltd

Last reported at 2018-May-24 17:30 UTC. Time now 2018-May-24 17:49 UTC.
Position N 53°27' W 003°01'.

Length 167 m; draft 5.8 m.

Type: Passenger vessel. MMSI: 310362000.

Date/timePositionNaut miles runAvg speedWind from/ knotsBaromVisibWave heightAir tempDewpointWater temp
2018-May-24 17:30N 53°27' W 003°01'0 0.0
2018-May-24 17:00N 53°27' W 003°01'0 0.0
2018-May-24 16:31N 53°27' W 003°01'0 0.1
2018-May-24 16:00N 53°27' W 003°01'0 0.8
2018-May-24 15:30N 53°27' W 003°01'1 1.4
2018-May-24 15:00N 53°27' W 003°02'714.7
2018-May-24 14:30N 53°31' W 003°13'918.7
2018-May-24 14:00N 53°31' W 003°28'1020.1
2018-May-24 13:30N 53°32' W 003°45'8418.7
2018-May-24 09:00N 53°20' W 006°05'5 9.5
2018-May-24 08:30N 53°21' W 006°13'0 0.1
2018-May-24 08:00N 53°21' W 006°13'0 0.0
2018-May-24 07:30N 53°21' W 006°13'0 0.0
2018-May-24 06:59N 53°21' W 006°13'0 0.0
2018-May-24 06:30N 53°21' W 006°13'0 0.0
2018-May-24 06:00N 53°21' W 006°13'0 0.0
2018-May-24 05:29N 53°21' W 006°13'0 0.0
2018-May-24 04:59N 53°21' W 006°13'0 0.0
2018-May-24 04:29N 53°21' W 006°13'0 0.2
2018-May-24 04:00N 53°21' W 006°13'5 8.1
2018-May-24 03:25N 53°20' W 006°05'816.9
2018-May-24 02:58N 53°23' W 005°53'816.7
2018-May-24 02:29N 53°25' W 005°40'915.7
2018-May-24 01:56N 53°28' W 005°26'4215.7
2018-May-23 23:15N 53°34' W 004°16'916.8
2018-May-23 22:44N 53°34' W 004°01'417.5
2018-May-23 22:30N 53°34' W 003°55'918.6
2018-May-23 22:00N 53°33' W 003°39'1019.9
2018-May-23 21:30N 53°33' W 003°23'1018.8
2018-May-23 21:00N 53°31' W 003°07'510.5
2018-May-23 20:30N 53°27' W 003°01'0 0.9
2018-May-23 20:00N 53°27' W 003°01'0 0.0
2018-May-23 19:30N 53°27' W 003°01'0 0.0
2018-May-23 19:00N 53°27' W 003°01'0 0.0
2018-May-23 18:30N 53°27' W 003°01'0 0.0
2018-May-23 17:49N 53°27' W 003°01'0 0.0
2018-May-23 17:30N 53°27' W 003°01'0 0.0
2018-May-23 16:53N 53°27' W 003°01'0 0.0
2018-May-23 16:30N 53°27' W 003°01'0 0.0
2018-May-23 16:00N 53°27' W 003°01'0 0.5
2018-May-23 15:30N 53°27' W 003°01'0 0.4
2018-May-23 15:00N 53°27' W 003°01'4 8.7
2018-May-23 14:30N 53°30' W 003°06'917.3
2018-May-23 14:00N 53°31' W 003°20'1019.1
2018-May-23 13:30N 53°31' W 003°36'1018.9
2018-May-23 13:00N 53°32' W 003°53'1020.3
2018-May-23 12:30N 53°34' W 004°09'4919.1
2018-May-23 09:56N 53°27' W 005°31'1120.0
2018-May-23 09:22N 53°23' W 005°49'918.4
2018-May-23 08:53N 53°20' W 006°03'612.0
2018-May-23 08:25N 53°21' W 006°12'1 0.7
2018-May-23 07:39N 53°21' W 006°13'0 0.0
2018-May-23 07:27N 53°21' W 006°13'0 0.0
2018-May-23 06:48N 53°21' W 006°13'0 0.0
2018-May-23 06:11N 53°21' W 006°13'0 0.0
2018-May-23 05:56N 53°21' W 006°13'0 0.0
2018-May-23 05:09N 53°21' W 006°13'0 0.0
2018-May-23 04:57N 53°21' W 006°13'0 0.0
2018-May-23 04:28N 53°21' W 006°13'0 0.2
2018-May-23 04:01N 53°21' W 006°13'6 9.2
2018-May-23 03:24N 53°21' W 006°03'716.8
2018-May-23 03:00N 53°23' W 005°53'816.6
2018-May-23 02:29N 53°26' W 005°40'4018.0
2018-May-23 00:16N 53°34' W 004°34'519.9
2018-May-22 23:59N 53°35' W 004°24'1020.2
2018-May-22 23:30N 53°34' W 004°08'1020.7
2018-May-22 23:00N 53°34' W 003°51'1020.8
2018-May-22 22:30N 53°33' W 003°33'1019.5
2018-May-22 22:00N 53°32' W 003°17'816.2
2018-May-22 21:30N 53°29' W 003°05'3 5.2
2018-May-22 21:00N 53°27' W 003°01'0 0.6
2018-May-22 20:30N 53°27' W 003°01'0 0.3
2018-May-22 19:55N 53°27' W 003°01'0 0.0
2018-May-22 19:29N 53°27' W 003°01'0 0.0
2018-May-22 18:59N 53°27' W 003°01'0 0.0
2018-May-22 18:30N 53°27' W 003°01'0 0.0
2018-May-22 17:58N 53°27' W 003°01'0 0.0
2018-May-22 17:30N 53°27' W 003°01'0 0.0
2018-May-22 16:54N 53°27' W 003°01'0 0.0
2018-May-22 16:30N 53°27' W 003°01'0 0.0
2018-May-22 16:00N 53°27' W 003°01'0 0.8
2018-May-22 15:30N 53°27' W 003°01'0 0.3
2018-May-22 15:00N 53°27' W 003°01'5 9.2
2018-May-22 14:30N 53°30' W 003°06'918.2
2018-May-22 14:00N 53°31' W 003°21'1121.5
2018-May-22 13:30N 53°31' W 003°39'1121.4
2018-May-22 13:00N 53°33' W 003°57'6920.0
2018-May-22 09:34N 53°23' W 005°51'719.6
2018-May-22 09:12N 53°20' W 006°03'413.2
2018-May-22 08:55N 53°21' W 006°09'2 5.6
2018-May-22 08:29N 53°21' W 006°13'0 0.0
2018-May-22 07:44N 53°21' W 006°13'0 0.0
2018-May-22 06:40N 53°21' W 006°13'0 0.0
2018-May-22 06:29N 53°21' W 006°13'0 0.0
2018-May-22 06:00N 53°21' W 006°13'0 0.0
2018-May-22 04:33N 53°21' W 006°13'0 0.0
2018-May-22 04:22N 53°21' W 006°13'1 1.8
2018-May-22 03:56N 53°21' W 006°12'511.4
2018-May-22 03:30N 53°21' W 006°03'918.9
2018-May-22 03:00N 53°24' W 005°49'1020.1
2018-May-22 02:30N 53°27' W 005°33'3318.7
2018-May-22 00:46N 53°34' W 004°39'1718.1
2018-May-21 23:48N 53°34' W 004°10'618.8
2018-May-21 23:29N 53°34' W 004°00'1119.6
2018-May-21 22:55N 53°33' W 003°42'820.0
2018-May-21 22:30N 53°33' W 003°28'918.2
2018-May-21 22:00N 53°31' W 003°12'815.9
2018-May-21 21:30N 53°27' W 003°01'0 0.6
2018-May-21 21:00N 53°27' W 003°01'0 0.9
2018-May-21 20:30N 53°27' W 003°01'0 0.0
2018-May-21 19:59N 53°27' W 003°01'0 0.0
2018-May-21 19:29N 53°27' W 003°01'0 0.0
2018-May-21 18:58N 53°27' W 003°01'0 0.0
2018-May-21 18:30N 53°27' W 003°01'0 0.0
2018-May-21 17:57N 53°27' W 003°01'0 0.0
2018-May-21 17:30N 53°27' W 003°01'0 0.0
2018-May-21 17:00N 53°27' W 003°01'0 0.0
2018-May-21 16:30N 53°27' W 003°01'0 0.0
2018-May-21 16:00N 53°27' W 003°01'0 0.0
2018-May-21 15:30N 53°27' W 003°01'0 0.0
2018-May-21 15:00N 53°27' W 003°01'0 0.0
2018-May-21 14:30N 53°27' W 003°01'0 0.0
2018-May-21 14:00N 53°27' W 003°01'0 0.0
2018-May-21 13:29N 53°27' W 003°01'0 0.0
2018-May-21 12:55N 53°27' W 003°01'0 0.0
2018-May-21 12:30N 53°27' W 003°01'0 0.0
2018-May-21 12:00N 53°27' W 003°01'0 0.0
2018-May-21 11:30N 53°27' W 003°01'0 0.0
2018-May-21 10:58N 53°27' W 003°01'0 0.0
2018-May-21 10:30N 53°27' W 003°01'0 0.0
2018-May-21 10:00N 53°27' W 003°01'0 0.0
2018-May-21 09:30N 53°27' W 003°01'0 0.0
2018-May-21 09:00N 53°27' W 003°01'0 0.0
2018-May-21 08:21N 53°27' W 003°01'0 0.0
2018-May-21 08:00N 53°27' W 003°01'0 0.0
2018-May-21 07:30N 53°27' W 003°01'0 0.0
2018-May-21 07:00N 53°27' W 003°01'0 0.0
2018-May-21 06:30N 53°27' W 003°01'0 0.0
2018-May-21 06:00N 53°27' W 003°01'0 0.0
2018-May-21 05:24N 53°27' W 003°01'0 0.0
2018-May-21 04:58N 53°27' W 003°01'0 0.4
2018-May-21 04:30N 53°27' W 003°01'0 0.7
2018-May-21 04:00N 53°27' W 003°01'510.0
2018-May-21 03:30N 53°31' W 003°07'817.0
2018-May-21 03:00N 53°31' W 003°21'816.4
2018-May-21 02:30N 53°31' W 003°35'714.9
2018-May-21 02:00N 53°31' W 003°47'814.9
2018-May-21 01:28N 53°33' W 004°00'715.3
2018-May-21 01:00N 53°34' W 004°12'815.8
2018-May-21 00:30N 53°35' W 004°25'1316.9
2018-May-20 23:42N 53°34' W 004°48'518.5
2018-May-20 23:25N 53°33' W 004°57'1316.1
2018-May-20 22:36N 53°30' W 005°18'214.5
2018-May-20 22:29N 53°29' W 005°21'714.4
2018-May-20 21:59N 53°27' W 005°32'914.5
2018-May-20 21:22N 53°24' W 005°46'714.9
2018-May-20 20:56N 53°22' W 005°57'615.4
2018-May-20 20:30N 53°21' W 006°08'3 6.6
2018-May-20 20:00N 53°21' W 006°13'0 0.0
2018-May-20 19:07N 53°21' W 006°13'0 0.0
2018-May-20 18:39N 53°21' W 006°13'0 0.0
2018-May-20 18:20N 53°21' W 006°13'0 0.0
2018-May-20 18:00N 53°21' W 006°13'0 0.0
2018-May-20 14:13N 53°21' W 006°13'0 0.0
2018-May-20 13:50N 53°21' W 006°13'0 0.0
2018-May-20 12:17N 53°21' W 006°13'0 0.0
2018-May-20 11:52N 53°21' W 006°13'0 0.0
2018-May-20 11:24N 53°21' W 006°13'0 0.0
2018-May-20 11:00N 53°21' W 006°13'0 0.0
2018-May-20 09:44N 53°21' W 006°13'0 0.0
2018-May-20 08:19N 53°21' W 006°13'0 0.0
2018-May-20 07:49N 53°21' W 006°13'0 0.0
2018-May-20 07:26N 53°21' W 006°13'0 0.0
2018-May-20 06:58N 53°21' W 006°13'0 0.0
2018-May-20 06:30N 53°21' W 006°13'0 0.0
2018-May-20 05:59N 53°21' W 006°13'0 0.0
2018-May-20 05:30N 53°21' W 006°13'0 0.0
2018-May-20 05:00N 53°21' W 006°13'0 0.0
2018-May-20 04:29N 53°21' W 006°13'0 0.0
2018-May-20 04:00N 53°21' W 006°13'0 0.0
2018-May-20 03:26N 53°21' W 006°13'0 0.0
2018-May-20 02:41N 53°21' W 006°13'0 0.0
2018-May-20 02:24N 53°21' W 006°13'0 0.0
2018-May-20 01:54N 53°21' W 006°13'0 0.0
2018-May-20 01:26N 53°21' W 006°13'0 0.0
2018-May-20 00:45N 53°21' W 006°13'0 0.0
2018-May-19 23:43N 53°21' W 006°13'0 0.0
2018-May-19 23:29N 53°21' W 006°13'0 0.0
2018-May-19 22:59N 53°21' W 006°13'0 0.0
2018-May-19 22:28N 53°21' W 006°13'0 0.0
2018-May-19 22:00N 53°21' W 006°13'0 0.0
2018-May-19 21:30N 53°21' W 006°13'0 0.0
2018-May-19 20:27N 53°21' W 006°13'0 0.0
2018-May-19 20:00N 53°21' W 006°13'0 0.0
2018-May-19 19:18N 53°21' W 006°13'0 0.0
2018-May-19 18:58N 53°21' W 006°13'0 0.0
2018-May-19 18:29N 53°21' W 006°13'0 0.0
2018-May-19 18:00N 53°21' W 006°13'0 0.0
2018-May-19 17:30N 53°21' W 006°13'0 0.0
2018-May-19 16:57N 53°21' W 006°13'1 3.1
2018-May-19 16:29N 53°21' W 006°11'5 9.9
2018-May-19 16:00N 53°21' W 006°03'917.7
2018-May-19 15:30N 53°24' W 005°49'1019.1
2018-May-19 14:59N 53°27' W 005°33'2020.0
2018-May-19 13:59N 53°32' W 005°01'1019.8
2018-May-19 13:30N 53°34' W 004°45'2318.7
2018-May-19 12:17N 53°35' W 004°07'518.5
2018-May-19 12:00N 53°34' W 003°58'918.5
2018-May-19 11:30N 53°34' W 003°42'918.3
2018-May-19 11:00N 53°33' W 003°27'917.3
2018-May-19 10:30N 53°31' W 003°13'713.3
2018-May-19 10:00N 53°28' W 003°03'2 2.9
2018-May-19 09:30N 53°27' W 003°01'0 0.4
2018-May-19 09:00N 53°27' W 003°01'0 0.5
2018-May-19 08:30N 53°27' W 003°01'0 0.0
2018-May-19 08:00N 53°27' W 003°01'0 0.0
2018-May-19 07:30N 53°27' W 003°01'0 0.0
2018-May-19 07:00N 53°27' W 003°01'0 0.0
2018-May-19 06:30N 53°27' W 003°01'0 0.0
2018-May-19 05:52N 53°27' W 003°01'0 0.0
2018-May-19 05:30N 53°27' W 003°01'0 0.0
2018-May-19 04:57N 53°27' W 003°01'0 0.0
2018-May-19 04:30N 53°27' W 003°01'0 0.8
2018-May-19 04:00N 53°27' W 003°01'0 0.2
2018-May-19 03:30N 53°27' W 003°01'4 8.0
2018-May-19 03:00N 53°30' W 003°06'815.5
2018-May-19 02:30N 53°31' W 003°18'917.8
2018-May-19 02:00N 53°31' W 003°34'918.2
2018-May-19 01:30N 53°32' W 003°49'1018.8
2018-May-19 00:59N 53°33' W 004°05'919.4
2018-May-19 00:30N 53°34' W 004°20'1019.8
2018-May-19 00:00N 53°36' W 004°37'1020.6
2018-May-18 23:30N 53°35' W 004°54'1020.4
2018-May-18 23:00N 53°32' W 005°10'1019.5
2018-May-18 22:30N 53°28' W 005°26'918.7
2018-May-18 22:00N 53°25' W 005°41'918.9
2018-May-18 21:30N 53°22' W 005°56'916.4
2018-May-18 20:59N 53°21' W 006°10'2 4.2
2018-May-18 20:30N 53°21' W 006°13'0 0.0
2018-May-18 20:00N 53°21' W 006°13'0 0.0
2018-May-18 19:28N 53°21' W 006°13'0 0.0
2018-May-18 19:00N 53°21' W 006°13'0 0.0
2018-May-18 18:29N 53°21' W 006°13'0 0.0
2018-May-18 17:57N 53°21' W 006°13'0 0.0
2018-May-18 17:29N 53°21' W 006°13'0 0.0
2018-May-18 16:59N 53°21' W 006°13'0 0.0
2018-May-18 16:30N 53°21' W 006°13'2 3.8
2018-May-18 16:00N 53°21' W 006°10'815.8
2018-May-18 15:30N 53°22' W 005°57'918.8
2018-May-18 15:00N 53°25' W 005°42'918.6
2018-May-18 14:30N 53°27' W 005°27'2318.6
2018-May-18 13:15N 53°33' W 004°49'3019.2
2018-May-18 11:42N 53°35' W 003°59'518.6
2018-May-18 11:27N 53°35' W 003°51'818.3
2018-May-18 11:00N 53°33' W 003°38'918.4
2018-May-18 10:30N 53°33' W 003°22'816.6
2018-May-18 10:00N 53°32' W 003°09'713.2
2018-May-18 09:30N 53°27' W 003°01'0 0.5
2018-May-18 09:00N 53°27' W 003°01'0 0.8
2018-May-18 08:30N 53°27' W 003°01'0 0.0
2018-May-18 08:00N 53°27' W 003°01'0 0.0
2018-May-18 07:30N 53°27' W 003°01'0 0.0
2018-May-18 06:58N 53°27' W 003°01'0 0.0
2018-May-18 06:30N 53°27' W 003°01'0 0.0
2018-May-18 05:54N 53°27' W 003°01'0 0.0
2018-May-18 05:29N 53°27' W 003°01'0 0.0
2018-May-18 04:58N 53°27' W 003°01'0 0.0
2018-May-18 04:30N 53°27' W 003°01'0 0.8
2018-May-18 04:00N 53°27' W 003°01'0 0.2
2018-May-18 03:30N 53°27' W 003°01'4 8.0
2018-May-18 03:00N 53°30' W 003°06'714.8
2018-May-18 02:30N 53°31' W 003°18'816.4
2018-May-18 02:00N 53°31' W 003°32'814.9
2018-May-18 01:30N 53°31' W 003°44'816.3
2018-May-18 01:00N 53°33' W 003°57'5118.4
2018-May-17 22:15N 53°29' W 005°23'618.7
2018-May-17 21:57N 53°28' W 005°32'918.9
2018-May-17 21:29N 53°25' W 005°46'919.1
2018-May-17 21:00N 53°21' W 005°60'713.5
2018-May-17 20:29N 53°21' W 006°12'1 1.8
2018-May-17 20:00N 53°21' W 006°13'0 0.0
2018-May-17 19:30N 53°21' W 006°13'0 0.0
2018-May-17 19:00N 53°21' W 006°13'0 0.0
2018-May-17 18:30N 53°21' W 006°13'0 0.0
2018-May-17 18:00N 53°21' W 006°13'0 0.0
2018-May-17 17:25N 53°21' W 006°13'0 0.0
2018-May-17 17:00N 53°21' W 006°13'0 0.0
2018-May-17 16:30N 53°21' W 006°13'2 4.3
2018-May-17 16:00N 53°21' W 006°09'816.0
2018-May-17 15:30N 53°22' W 005°56'1020.3
2018-May-17 15:01N 53°25' W 005°40'1020.5
2018-May-17 14:30N 53°28' W 005°23'1121.3
2018-May-17 14:00N 53°31' W 005°06'3321.2
2018-May-17 12:27N 53°35' W 004°11'1020.3
2018-May-17 11:58N 53°34' W 003°55'919.6
2018-May-17 11:30N 53°34' W 003°40'1019.2
2018-May-17 11:00N 53°33' W 003°23'917.4
2018-May-17 10:30N 53°32' W 003°09'713.7
2018-May-17 10:00N 53°27' W 003°01'0 0.6
2018-May-17 09:30N 53°27' W 003°01'0 0.6
2018-May-17 08:58N 53°27' W 003°01'0 0.0
2018-May-17 08:26N 53°27' W 003°01'0 0.0
2018-May-17 08:00N 53°27' W 003°01'0 0.0
2018-May-17 07:30N 53°27' W 003°01'0 0.0
2018-May-17 06:59N 53°27' W 003°01'0 0.0
2018-May-17 06:29N 53°27' W 003°01'0 0.0
2018-May-17 05:53N 53°27' W 003°01'0 0.0
2018-May-17 05:30N 53°27' W 003°01'0 0.0
2018-May-17 04:58N 53°27' W 003°01'0 0.2
2018-May-17 04:30N 53°27' W 003°01'0 0.7
2018-May-17 04:00N 53°27' W 003°01'0 0.3
2018-May-17 03:30N 53°27' W 003°01'5 9.0
2018-May-17 03:00N 53°30' W 003°06'714.6
2018-May-17 02:30N 53°31' W 003°18'816.8
2018-May-17 02:00N 53°31' W 003°32'816.8
2018-May-17 01:30N 53°32' W 003°46'917.3
2018-May-17 01:01N 53°33' W 004°01'917.5
2018-May-17 00:30N 53°35' W 004°15'2618.4
2018-May-16 23:06N 53°34' W 004°59'919.5
2018-May-16 22:39N 53°31' W 005°13'419.3
2018-May-16 22:27N 53°30' W 005°19'918.8
2018-May-16 21:59N 53°27' W 005°33'1318.7
2018-May-16 21:18N 53°23' W 005°53'619.2
2018-May-16 20:58N 53°20' W 006°03'612.0
2018-May-16 20:30N 53°21' W 006°12'1 1.1
2018-May-16 19:59N 53°21' W 006°13'0 0.0
2018-May-16 19:29N 53°21' W 006°13'0 0.0
2018-May-16 19:00N 53°21' W 006°13'0 0.0
2018-May-16 18:29N 53°21' W 006°13'0 0.0
2018-May-16 17:53N 53°21' W 006°13'0 0.0
2018-May-16 17:08N 53°21' W 006°13'0 0.0
2018-May-16 16:58N 53°21' W 006°13'0 0.0
2018-May-16 16:29N 53°21' W 006°13'2 5.0
2018-May-16 16:00N 53°21' W 006°09'816.1
2018-May-16 15:30N 53°22' W 005°56'1018.7
2018-May-16 14:58N 53°25' W 005°40'918.5
2018-May-16 14:30N 53°27' W 005°26'4920.8
2018-May-16 12:08N 53°34' W 004°04'620.5
2018-May-16 11:49N 53°34' W 003°53'619.7
2018-May-16 11:31N 53°34' W 003°42'917.9
2018-May-16 11:00N 53°33' W 003°27'917.7
2018-May-16 10:30N 53°31' W 003°13'714.1
2018-May-16 10:00N 53°28' W 003°02'1 1.8
2018-May-16 09:28N 53°27' W 003°01'0 0.8
2018-May-16 08:57N 53°27' W 003°01'0 0.0
2018-May-16 08:30N 53°27' W 003°01'0 0.0
2018-May-16 08:00N 53°27' W 003°01'0 0.0
2018-May-16 07:29N 53°27' W 003°01'0 0.0
2018-May-16 07:01N 53°27' W 003°01'0 0.0
2018-May-16 06:29N 53°27' W 003°01'0 0.0
2018-May-16 06:01N 53°27' W 003°01'0 0.0
2018-May-16 05:27N 53°27' W 003°01'0 0.9
2018-May-16 05:00N 53°27' W 003°01'0 0.3
2018-May-16 04:30N 53°27' W 003°01'3 6.2
2018-May-16 04:00N 53°29' W 003°05'5 9.6
2018-May-16 03:30N 53°31' W 003°12'612.7
2018-May-16 03:00N 53°31' W 003°23'1 1.4
2018-May-16 02:29N 53°31' W 003°21'715.3
2018-May-16 02:00N 53°31' W 003°34'714.7
2018-May-16 01:30N 53°31' W 003°46'917.4
2018-May-16 01:00N 53°32' W 004°01'6918.5
2018-May-15 21:17N 53°22' W 005°55'715.6
2018-May-15 20:49N 53°20' W 006°07'310.5
2018-May-15 20:30N 53°21' W 006°12'1 1.0
2018-May-15 20:00N 53°21' W 006°13'0 0.0
2018-May-15 19:30N 53°21' W 006°13'0 0.0
2018-May-15 19:00N 53°21' W 006°13'0 0.0
2018-May-15 18:30N 53°21' W 006°13'0 0.0
2018-May-15 18:00N 53°21' W 006°13'0 0.0
2018-May-15 17:30N 53°21' W 006°13'0 0.0
2018-May-15 16:58N 53°21' W 006°13'0 0.0
2018-May-15 16:30N 53°21' W 006°13'2 3.9
2018-May-15 15:59N 53°21' W 006°10'714.7
2018-May-15 15:31N 53°22' W 005°58'917.4
2018-May-15 14:59N 53°25' W 005°44'1016.8
2018-May-15 14:23N 53°27' W 005°27'5117.9
2018-May-15 11:33N 53°34' W 004°03'219.2
2018-May-15 11:27N 53°34' W 003°60'1218.8
2018-May-15 10:50N 53°33' W 003°40'617.9
2018-May-15 10:30N 53°33' W 003°30'918.0
2018-May-15 10:00N 53°31' W 003°15'815.5
2018-May-15 09:30N 53°28' W 003°03'2 3.7
2018-May-15 09:00N 53°27' W 003°01'0 0.9
2018-May-15 08:30N 53°27' W 003°01'0 0.0
2018-May-15 07:52N 53°27' W 003°01'0 0.0
2018-May-15 07:28N 53°27' W 003°01'0 0.0
2018-May-15 06:55N 53°27' W 003°01'0 0.0
2018-May-15 06:28N 53°27' W 003°01'0 0.0
2018-May-15 05:58N 53°27' W 003°01'0 0.0
2018-May-15 05:25N 53°27' W 003°01'0 0.0
2018-May-15 04:52N 53°27' W 003°01'0 0.1
2018-May-15 04:28N 53°27' W 003°01'0 0.8
2018-May-15 03:59N 53°27' W 003°01'0 0.3
2018-May-15 03:30N 53°27' W 003°01'612.5
2018-May-15 03:00N 53°32' W 003°08'715.2
2018-May-15 02:30N 53°31' W 003°21'815.7
2018-May-15 02:00N 53°31' W 003°34'714.0
2018-May-15 01:30N 53°32' W 003°46'714.9
2018-May-15 01:00N 53°33' W 003°58'7516.2
2018-May-14 20:24N 53°21' W 006°02'613.3
2018-May-14 19:59N 53°21' W 006°11'1 2.3
2018-May-14 19:29N 53°21' W 006°13'0 0.0
2018-May-14 19:00N 53°21' W 006°13'0 0.0
2018-May-14 18:30N 53°21' W 006°13'0 0.0
2018-May-14 18:00N 53°21' W 006°13'  

Dump ship's entire track history